sensor_id;sensor_type;location;lat;lon;timestamp;temperature;humidity
49465;DHT22;35358;49.342;8.802;2022-08-04T00:01:32;22.50;99.90
49465;DHT22;35358;49.342;8.802;2022-08-04T00:04:26;22.60;99.90
49465;DHT22;35358;49.342;8.802;2022-08-04T00:09:39;22.30;99.90
49465;DHT22;35358;49.342;8.802;2022-08-04T00:12:11;22.30;99.90
49465;DHT22;35358;49.342;8.802;2022-08-04T00:14:40;22.30;99.90
49465;DHT22;35358;49.342;8.802;2022-08-04T00:17:11;22.30;99.90
49465;DHT22;35358;49.342;8.802;2022-08-04T00:19:43;22.20;99.90
49465;DHT22;35358;49.342;8.802;2022-08-04T00:22:12;22.20;99.90
49465;DHT22;35358;49.342;8.802;2022-08-04T00:24:41;22.10;99.90
49465;DHT22;35358;49.342;8.802;2022-08-04T00:27:07;22.10;99.90
49465;DHT22;35358;49.342;8.802;2022-08-04T00:29:34;22.10;99.90
49465;DHT22;35358;49.342;8.802;2022-08-04T00:32:02;22.10;99.90
49465;DHT22;35358;49.342;8.802;2022-08-04T00:34:30;21.90;99.90
49465;DHT22;35358;49.342;8.802;2022-08-04T00:36:59;21.80;99.90
49465;DHT22;35358;49.342;8.802;2022-08-04T00:39:29;21.70;99.90
49465;DHT22;35358;49.342;8.802;2022-08-04T00:42:16;21.60;99.90
49465;DHT22;35358;49.342;8.802;2022-08-04T00:45:07;21.70;99.90
49465;DHT22;35358;49.342;8.802;2022-08-04T00:48:08;21.60;99.90
49465;DHT22;35358;49.342;8.802;2022-08-04T00:50:50;21.60;99.90
49465;DHT22;35358;49.342;8.802;2022-08-04T00:53:35;21.70;99.90
49465;DHT22;35358;49.342;8.802;2022-08-04T01:12:42;21.60;99.90
49465;DHT22;35358;49.342;8.802;2022-08-04T01:18:05;21.40;99.90
49465;DHT22;35358;49.342;8.802;2022-08-04T01:20:52;21.40;99.90
49465;DHT22;35358;49.342;8.802;2022-08-04T01:23:42;21.40;99.90
49465;DHT22;35358;49.342;8.802;2022-08-04T01:26:31;21.30;99.90
49465;DHT22;35358;49.342;8.802;2022-08-04T01:29:08;21.10;99.90
49465;DHT22;35358;49.342;8.802;2022-08-04T01:31:53;21.10;99.90
49465;DHT22;35358;49.342;8.802;2022-08-04T01:34:23;21.10;99.90
49465;DHT22;35358;49.342;8.802;2022-08-04T01:37:14;21.00;99.90
49465;DHT22;35358;49.342;8.802;2022-08-04T01:40:01;21.00;99.90
49465;DHT22;35358;49.342;8.802;2022-08-04T01:42:28;20.90;99.90
49465;DHT22;35358;49.342;8.802;2022-08-04T01:45:02;21.00;99.90
49465;DHT22;35358;49.342;8.802;2022-08-04T01:47:34;20.90;99.90
49465;DHT22;35358;49.342;8.802;2022-08-04T01:50:08;20.90;99.90
49465;DHT22;35358;49.342;8.802;2022-08-04T01:52:36;21.00;99.90
49465;DHT22;35358;49.342;8.802;2022-08-04T01:55:04;20.80;99.90
49465;DHT22;35358;49.342;8.802;2022-08-04T01:57:32;20.80;99.90
49465;DHT22;35358;49.342;8.802;2022-08-04T02:00:02;21.00;99.90
49465;DHT22;35358;49.342;8.802;2022-08-04T02:02:33;21.10;99.90
49465;DHT22;35358;49.342;8.802;2022-08-04T02:05:01;21.20;99.90
49465;DHT22;35358;49.342;8.802;2022-08-04T02:07:49;21.20;99.90
49465;DHT22;35358;49.342;8.802;2022-08-04T02:10:22;21.10;99.90
49465;DHT22;35358;49.342;8.802;2022-08-04T02:13:09;20.90;99.90
49465;DHT22;35358;49.342;8.802;2022-08-04T02:21:08;20.60;99.90
49465;DHT22;35358;49.342;8.802;2022-08-04T02:23:38;20.60;99.90
49465;DHT22;35358;49.342;8.802;2022-08-04T02:26:19;20.60;99.90
49465;DHT22;35358;49.342;8.802;2022-08-04T02:31:55;20.60;99.90
49465;DHT22;35358;49.342;8.802;2022-08-04T02:34:32;20.50;99.90
49465;DHT22;35358;49.342;8.802;2022-08-04T02:37:03;20.60;99.90
49465;DHT22;35358;49.342;8.802;2022-08-04T02:39:33;20.40;99.90
49465;DHT22;35358;49.342;8.802;2022-08-04T02:42:01;20.20;99.90
49465;DHT22;35358;49.342;8.802;2022-08-04T02:44:31;20.10;99.90
49465;DHT22;35358;49.342;8.802;2022-08-04T02:46:59;20.10;99.90
49465;DHT22;35358;49.342;8.802;2022-08-04T02:49:28;20.10;99.90
49465;DHT22;35358;49.342;8.802;2022-08-04T02:51:56;20.20;99.90
49465;DHT22;35358;49.342;8.802;2022-08-04T02:54:27;20.10;99.90
49465;DHT22;35358;49.342;8.802;2022-08-04T02:56:59;20.20;99.90
49465;DHT22;35358;49.342;8.802;2022-08-04T02:59:29;20.00;99.90
49465;DHT22;35358;49.342;8.802;2022-08-04T03:01:55;20.10;99.90
49465;DHT22;35358;49.342;8.802;2022-08-04T03:18:53;20.10;99.90
49465;DHT22;35358;49.342;8.802;2022-08-04T03:40:19;19.70;99.90
49465;DHT22;35358;49.342;8.802;2022-08-04T03:51:34;19.80;99.90
49465;DHT22;35358;49.342;8.802;2022-08-04T04:00:13;19.80;99.90
49465;DHT22;35358;49.342;8.802;2022-08-04T04:11:03;19.60;99.90
49465;DHT22;35358;49.342;8.802;2022-08-04T04:16:54;19.70;99.90
49465;DHT22;35358;49.342;8.802;2022-08-04T04:19:50;19.80;99.90
49465;DHT22;35358;49.342;8.802;2022-08-04T04:33:36;19.70;99.90
49465;DHT22;35358;49.342;8.802;2022-08-04T04:44:18;19.70;99.90
49465;DHT22;35358;49.342;8.802;2022-08-04T04:49:48;20.00;99.90
49465;DHT22;35358;49.342;8.802;2022-08-04T04:52:48;20.00;99.90
49465;DHT22;35358;49.342;8.802;2022-08-04T04:55:25;20.10;99.90
49465;DHT22;35358;49.342;8.802;2022-08-04T04:57:57;19.90;99.90
49465;DHT22;35358;49.342;8.802;2022-08-04T05:03:27;19.90;99.90
49465;DHT22;35358;49.342;8.802;2022-08-04T05:08:57;19.70;99.90
49465;DHT22;35358;49.342;8.802;2022-08-04T05:12:09;19.70;99.90
49465;DHT22;35358;49.342;8.802;2022-08-04T05:14:46;19.90;99.90
49465;DHT22;35358;49.342;8.802;2022-08-04T05:20:06;20.00;99.90
49465;DHT22;35358;49.342;8.802;2022-08-04T05:28:00;20.40;99.90
49465;DHT22;35358;49.342;8.802;2022-08-04T05:30:27;20.50;99.90
49465;DHT22;35358;49.342;8.802;2022-08-04T05:33:06;20.60;99.90
49465;DHT22;35358;49.342;8.802;2022-08-04T05:35:38;20.60;99.90
49465;DHT22;35358;49.342;8.802;2022-08-04T05:38:06;20.60;99.90
49465;DHT22;35358;49.342;8.802;2022-08-04T05:40:37;20.70;99.90
49465;DHT22;35358;49.342;8.802;2022-08-04T05:43:05;20.60;99.90
49465;DHT22;35358;49.342;8.802;2022-08-04T05:45:33;20.80;99.90
49465;DHT22;35358;49.342;8.802;2022-08-04T05:48:01;20.90;99.90
49465;DHT22;35358;49.342;8.802;2022-08-04T05:50:29;21.00;99.90
49465;DHT22;35358;49.342;8.802;2022-08-04T05:52:56;21.00;99.90
49465;DHT22;35358;49.342;8.802;2022-08-04T05:55:24;20.90;99.90
49465;DHT22;35358;49.342;8.802;2022-08-04T05:57:51;21.00;99.90
49465;DHT22;35358;49.342;8.802;2022-08-04T06:00:18;21.10;99.90
49465;DHT22;35358;49.342;8.802;2022-08-04T06:02:48;21.10;99.90
49465;DHT22;35358;49.342;8.802;2022-08-04T06:05:16;21.10;99.90
49465;DHT22;35358;49.342;8.802;2022-08-04T06:07:45;21.20;99.90
49465;DHT22;35358;49.342;8.802;2022-08-04T06:10:11;21.30;99.90
49465;DHT22;35358;49.342;8.802;2022-08-04T06:15:44;21.50;99.90
49465;DHT22;35358;49.342;8.802;2022-08-04T06:18:13;21.60;99.90
49465;DHT22;35358;49.342;8.802;2022-08-04T06:20:43;21.70;99.90
49465;DHT22;35358;49.342;8.802;2022-08-04T06:23:14;21.90;99.90
49465;DHT22;35358;49.342;8.802;2022-08-04T06:25:47;22.00;99.90
49465;DHT22;35358;49.342;8.802;2022-08-04T06:28:15;22.20;99.90
49465;DHT22;35358;49.342;8.802;2022-08-04T06:30:42;22.50;99.90
49465;DHT22;35358;49.342;8.802;2022-08-04T06:33:13;22.60;99.90
49465;DHT22;35358;49.342;8.802;2022-08-04T06:35:54;22.80;99.90
49465;DHT22;35358;49.342;8.802;2022-08-04T06:38:23;23.00;99.90
49465;DHT22;35358;49.342;8.802;2022-08-04T06:40:50;23.10;99.90
49465;DHT22;35358;49.342;8.802;2022-08-04T06:43:19;23.10;99.90
49465;DHT22;35358;49.342;8.802;2022-08-04T06:45:53;23.20;99.90
49465;DHT22;35358;49.342;8.802;2022-08-04T06:48:20;23.20;99.90
49465;DHT22;35358;49.342;8.802;2022-08-04T06:50:48;23.30;99.90
49465;DHT22;35358;49.342;8.802;2022-08-04T06:53:17;23.40;99.90
49465;DHT22;35358;49.342;8.802;2022-08-04T06:55:46;23.50;99.90
49465;DHT22;35358;49.342;8.802;2022-08-04T06:58:12;23.60;99.90
49465;DHT22;35358;49.342;8.802;2022-08-04T07:00:40;23.70;99.90
49465;DHT22;35358;49.342;8.802;2022-08-04T07:03:07;23.90;99.90
49465;DHT22;35358;49.342;8.802;2022-08-04T07:05:39;24.00;99.90
49465;DHT22;35358;49.342;8.802;2022-08-04T07:08:09;24.10;99.90
49465;DHT22;35358;49.342;8.802;2022-08-04T07:10:36;24.20;99.90
49465;DHT22;35358;49.342;8.802;2022-08-04T07:13:04;24.30;99.90
49465;DHT22;35358;49.342;8.802;2022-08-04T07:15:32;24.40;99.90
49465;DHT22;35358;49.342;8.802;2022-08-04T07:17:58;24.50;99.90
49465;DHT22;35358;49.342;8.802;2022-08-04T07:20:27;24.60;99.90
49465;DHT22;35358;49.342;8.802;2022-08-04T07:22:53;24.70;99.90
49465;DHT22;35358;49.342;8.802;2022-08-04T07:25:20;24.80;99.90
49465;DHT22;35358;49.342;8.802;2022-08-04T07:27:45;24.90;99.90
49465;DHT22;35358;49.342;8.802;2022-08-04T07:30:12;24.90;99.90
49465;DHT22;35358;49.342;8.802;2022-08-04T07:32:40;25.20;99.90
49465;DHT22;35358;49.342;8.802;2022-08-04T07:35:08;25.40;99.90
49465;DHT22;35358;49.342;8.802;2022-08-04T07:37:37;25.40;99.90
49465;DHT22;35358;49.342;8.802;2022-08-04T07:40:03;25.50;99.90
49465;DHT22;35358;49.342;8.802;2022-08-04T07:42:29;25.60;99.90
49465;DHT22;35358;49.342;8.802;2022-08-04T07:44:55;25.80;99.90
49465;DHT22;35358;49.342;8.802;2022-08-04T07:47:23;25.90;99.90
49465;DHT22;35358;49.342;8.802;2022-08-04T07:49:49;25.90;99.90
49465;DHT22;35358;49.342;8.802;2022-08-04T07:52:17;26.10;99.90
49465;DHT22;35358;49.342;8.802;2022-08-04T07:54:46;26.10;99.90
49465;DHT22;35358;49.342;8.802;2022-08-04T07:57:19;26.20;99.90
49465;DHT22;35358;49.342;8.802;2022-08-04T07:59:46;26.30;99.90
49465;DHT22;35358;49.342;8.802;2022-08-04T08:02:13;26.40;99.90
49465;DHT22;35358;49.342;8.802;2022-08-04T08:04:40;26.40;99.90
49465;DHT22;35358;49.342;8.802;2022-08-04T08:07:07;26.50;99.90
49465;DHT22;35358;49.342;8.802;2022-08-04T08:09:35;26.60;99.90
49465;DHT22;35358;49.342;8.802;2022-08-04T08:12:01;26.60;99.90
49465;DHT22;35358;49.342;8.802;2022-08-04T08:14:29;26.70;99.90
49465;DHT22;35358;49.342;8.802;2022-08-04T08:16:57;26.90;99.90
49465;DHT22;35358;49.342;8.802;2022-08-04T08:19:23;27.00;99.90
49465;DHT22;35358;49.342;8.802;2022-08-04T08:21:49;27.10;99.90
49465;DHT22;35358;49.342;8.802;2022-08-04T08:24:15;27.10;99.90
49465;DHT22;35358;49.342;8.802;2022-08-04T08:26:41;27.20;99.90
49465;DHT22;35358;49.342;8.802;2022-08-04T08:29:10;27.20;99.90
49465;DHT22;35358;49.342;8.802;2022-08-04T08:31:38;27.30;99.90
49465;DHT22;35358;49.342;8.802;2022-08-04T08:34:04;27.40;99.90
49465;DHT22;35358;49.342;8.802;2022-08-04T08:36:44;27.50;99.90
49465;DHT22;35358;49.342;8.802;2022-08-04T08:39:18;27.60;99.90
49465;DHT22;35358;49.342;8.802;2022-08-04T08:59:49;28.30;99.90
49465;DHT22;35358;49.342;8.802;2022-08-04T09:08:04;28.50;99.90
49465;DHT22;35358;49.342;8.802;2022-08-04T09:10:47;28.80;99.90
49465;DHT22;35358;49.342;8.802;2022-08-04T09:13:29;28.90;99.90
49465;DHT22;35358;49.342;8.802;2022-08-04T09:16:20;28.90;99.90
49465;DHT22;35358;49.342;8.802;2022-08-04T09:19:13;29.00;99.90
49465;DHT22;35358;49.342;8.802;2022-08-04T09:21:49;29.10;99.90
49465;DHT22;35358;49.342;8.802;2022-08-04T09:24:28;29.10;99.90
49465;DHT22;35358;49.342;8.802;2022-08-04T09:27:02;29.20;99.90
49465;DHT22;35358;49.342;8.802;2022-08-04T09:32:45;29.60;99.90
49465;DHT22;35358;49.342;8.802;2022-08-04T09:38:46;29.70;99.90
49465;DHT22;35358;49.342;8.802;2022-08-04T09:47:43;30.00;99.90
49465;DHT22;35358;49.342;8.802;2022-08-04T09:55:49;30.30;99.90
49465;DHT22;35358;49.342;8.802;2022-08-04T10:01:12;30.50;99.90
49465;DHT22;35358;49.342;8.802;2022-08-04T10:03:49;30.70;99.90
49465;DHT22;35358;49.342;8.802;2022-08-04T10:09:51;30.90;99.90
49465;DHT22;35358;49.342;8.802;2022-08-04T10:18:43;31.20;99.90
49465;DHT22;35358;49.342;8.802;2022-08-04T10:27:06;31.50;99.90
49465;DHT22;35358;49.342;8.802;2022-08-04T10:29:41;31.60;99.90
49465;DHT22;35358;49.342;8.802;2022-08-04T10:32:18;31.70;99.90
49465;DHT22;35358;49.342;8.802;2022-08-04T10:37:28;31.70;99.90
49465;DHT22;35358;49.342;8.802;2022-08-04T10:40:06;31.80;99.90
49465;DHT22;35358;49.342;8.802;2022-08-04T10:45:43;32.00;99.90
49465;DHT22;35358;49.342;8.802;2022-08-04T10:48:22;31.80;99.90
49465;DHT22;35358;49.342;8.802;2022-08-04T10:53:46;32.00;99.90
49465;DHT22;35358;49.342;8.802;2022-08-04T10:56:22;32.10;99.90
49465;DHT22;35358;49.342;8.802;2022-08-04T10:59:01;32.00;99.90
49465;DHT22;35358;49.342;8.802;2022-08-04T11:01:45;32.40;99.90
49465;DHT22;35358;49.342;8.802;2022-08-04T11:04:32;32.60;99.90
49465;DHT22;35358;49.342;8.802;2022-08-04T11:07:01;32.70;99.90
49465;DHT22;35358;49.342;8.802;2022-08-04T11:09:28;32.40;99.90
49465;DHT22;35358;49.342;8.802;2022-08-04T11:12:03;32.30;99.90
49465;DHT22;35358;49.342;8.802;2022-08-04T11:14:43;32.40;99.90
49465;DHT22;35358;49.342;8.802;2022-08-04T11:17:21;32.80;99.90
49465;DHT22;35358;49.342;8.802;2022-08-04T11:22:37;33.10;99.90
49465;DHT22;35358;49.342;8.802;2022-08-04T11:27:54;32.90;99.90
49465;DHT22;35358;49.342;8.802;2022-08-04T11:30:49;33.10;99.90
49465;DHT22;35358;49.342;8.802;2022-08-04T11:33:30;33.20;99.90
49465;DHT22;35358;49.342;8.802;2022-08-04T11:38:47;33.60;99.90
49465;DHT22;35358;49.342;8.802;2022-08-04T11:41:18;33.60;99.90
49465;DHT22;35358;49.342;8.802;2022-08-04T11:43:52;33.70;99.90
49465;DHT22;35358;49.342;8.802;2022-08-04T11:46:29;33.70;99.90
49465;DHT22;35358;49.342;8.802;2022-08-04T11:51:44;33.70;99.90
49465;DHT22;35358;49.342;8.802;2022-08-04T11:54:11;33.80;99.90
49465;DHT22;35358;49.342;8.802;2022-08-04T11:56:38;34.00;99.90
49465;DHT22;35358;49.342;8.802;2022-08-04T11:59:06;34.10;99.90
49465;DHT22;35358;49.342;8.802;2022-08-04T12:05:00;34.40;99.90
49465;DHT22;35358;49.342;8.802;2022-08-04T12:07:43;34.30;99.90
49465;DHT22;35358;49.342;8.802;2022-08-04T12:10:56;34.50;99.90
49465;DHT22;35358;49.342;8.802;2022-08-04T12:16:26;34.70;99.90
49465;DHT22;35358;49.342;8.802;2022-08-04T12:18:58;34.60;99.90
49465;DHT22;35358;49.342;8.802;2022-08-04T12:21:38;34.60;99.90
49465;DHT22;35358;49.342;8.802;2022-08-04T12:24:14;34.90;99.90
49465;DHT22;35358;49.342;8.802;2022-08-04T12:26:47;34.90;99.90
49465;DHT22;35358;49.342;8.802;2022-08-04T12:29:15;35.20;99.90
49465;DHT22;35358;49.342;8.802;2022-08-04T12:32:31;35.40;99.90
49465;DHT22;35358;49.342;8.802;2022-08-04T12:37:27;35.80;99.90
49465;DHT22;35358;49.342;8.802;2022-08-04T12:40:00;35.80;99.90
49465;DHT22;35358;49.342;8.802;2022-08-04T12:42:50;36.00;99.90
49465;DHT22;35358;49.342;8.802;2022-08-04T12:45:22;36.00;99.90
49465;DHT22;35358;49.342;8.802;2022-08-04T12:47:54;35.90;99.90
49465;DHT22;35358;49.342;8.802;2022-08-04T12:50:23;36.20;99.90
49465;DHT22;35358;49.342;8.802;2022-08-04T12:52:56;36.20;99.90
49465;DHT22;35358;49.342;8.802;2022-08-04T12:55:26;36.10;99.90
49465;DHT22;35358;49.342;8.802;2022-08-04T12:57:53;36.10;99.90
49465;DHT22;35358;49.342;8.802;2022-08-04T13:00:33;36.30;99.90
49465;DHT22;35358;49.342;8.802;2022-08-04T13:03:07;36.20;99.90
49465;DHT22;35358;49.342;8.802;2022-08-04T13:05:36;36.40;99.90
49465;DHT22;35358;49.342;8.802;2022-08-04T13:08:04;36.50;99.90
49465;DHT22;35358;49.342;8.802;2022-08-04T13:10:37;36.40;99.90
49465;DHT22;35358;49.342;8.802;2022-08-04T13:13:03;36.50;99.90
49465;DHT22;35358;49.342;8.802;2022-08-04T13:15:31;36.30;99.90
49465;DHT22;35358;49.342;8.802;2022-08-04T13:18:04;36.80;99.90
49465;DHT22;35358;49.342;8.802;2022-08-04T13:20:37;37.00;99.90
49465;DHT22;35358;49.342;8.802;2022-08-04T13:25:31;37.50;99.90
49465;DHT22;35358;49.342;8.802;2022-08-04T13:28:00;37.50;99.90
49465;DHT22;35358;49.342;8.802;2022-08-04T13:30:30;37.70;99.90
49465;DHT22;35358;49.342;8.802;2022-08-04T13:32:59;37.60;99.90
49465;DHT22;35358;49.342;8.802;2022-08-04T13:35:27;37.80;99.90
49465;DHT22;35358;49.342;8.802;2022-08-04T13:37:54;37.60;99.90
49465;DHT22;35358;49.342;8.802;2022-08-04T13:40:25;37.40;99.90
49465;DHT22;35358;49.342;8.802;2022-08-04T13:42:54;37.50;99.90
49465;DHT22;35358;49.342;8.802;2022-08-04T13:45:22;37.60;99.30
49465;DHT22;35358;49.342;8.802;2022-08-04T13:47:50;37.30;98.50
49465;DHT22;35358;49.342;8.802;2022-08-04T13:50:23;37.20;98.80
49465;DHT22;35358;49.342;8.802;2022-08-04T13:52:53;37.30;99.30
49465;DHT22;35358;49.342;8.802;2022-08-04T13:55:35;37.80;99.70
49465;DHT22;35358;49.342;8.802;2022-08-04T14:01:05;38.10;99.90
49465;DHT22;35358;49.342;8.802;2022-08-04T14:03:55;38.40;99.30
49465;DHT22;35358;49.342;8.802;2022-08-04T14:06:23;38.30;98.30
49465;DHT22;35358;49.342;8.802;2022-08-04T14:11:29;38.60;99.80
49465;DHT22;35358;49.342;8.802;2022-08-04T14:13:57;38.80;98.40
49465;DHT22;35358;49.342;8.802;2022-08-04T14:16:22;38.80;97.90
49465;DHT22;35358;49.342;8.802;2022-08-04T14:18:58;38.90;97.50
49465;DHT22;35358;49.342;8.802;2022-08-04T14:21:25;38.90;97.10
49465;DHT22;35358;49.342;8.802;2022-08-04T14:23:54;39.10;98.80
49465;DHT22;35358;49.342;8.802;2022-08-04T14:26:31;39.30;97.10
49465;DHT22;35358;49.342;8.802;2022-08-04T14:29:16;39.30;97.00
49465;DHT22;35358;49.342;8.802;2022-08-04T14:31:45;39.40;96.50
49465;DHT22;35358;49.342;8.802;2022-08-04T14:34:27;39.30;96.50
49465;DHT22;35358;49.342;8.802;2022-08-04T14:37:09;38.80;96.50
49465;DHT22;35358;49.342;8.802;2022-08-04T14:39:43;39.10;95.90
49465;DHT22;35358;49.342;8.802;2022-08-04T14:42:11;39.10;97.10
49465;DHT22;35358;49.342;8.802;2022-08-04T14:44:53;39.30;95.70
49465;DHT22;35358;49.342;8.802;2022-08-04T14:47:27;38.90;94.10
49465;DHT22;35358;49.342;8.802;2022-08-04T14:50:02;39.20;94.80
49465;DHT22;35358;49.342;8.802;2022-08-04T14:52:28;39.10;92.90
49465;DHT22;35358;49.342;8.802;2022-08-04T14:54:54;38.80;91.40
49465;DHT22;35358;49.342;8.802;2022-08-04T14:57:21;38.80;90.80
49465;DHT22;35358;49.342;8.802;2022-08-04T14:59:48;38.90;91.10
49465;DHT22;35358;49.342;8.802;2022-08-04T15:02:21;38.70;91.00
49465;DHT22;35358;49.342;8.802;2022-08-04T15:04:49;38.90;91.40
49465;DHT22;35358;49.342;8.802;2022-08-04T15:07:15;39.30;91.30
49465;DHT22;35358;49.342;8.802;2022-08-04T15:09:46;39.50;91.30
49465;DHT22;35358;49.342;8.802;2022-08-04T15:12:12;39.70;90.90
49465;DHT22;35358;49.342;8.802;2022-08-04T15:14:39;39.30;91.40
49465;DHT22;35358;49.342;8.802;2022-08-04T15:17:06;39.00;91.30
49465;DHT22;35358;49.342;8.802;2022-08-04T15:19:36;39.30;90.10
49465;DHT22;35358;49.342;8.802;2022-08-04T15:22:04;39.10;88.60
49465;DHT22;35358;49.342;8.802;2022-08-04T15:24:33;39.10;91.00
49465;DHT22;35358;49.342;8.802;2022-08-04T15:26:59;39.00;88.70
49465;DHT22;35358;49.342;8.802;2022-08-04T15:29:39;38.70;89.30
49465;DHT22;35358;49.342;8.802;2022-08-04T15:32:06;39.40;91.90
49465;DHT22;35358;49.342;8.802;2022-08-04T15:34:50;39.90;88.60
49465;DHT22;35358;49.342;8.802;2022-08-04T15:37:27;39.50;85.40
49465;DHT22;35358;49.342;8.802;2022-08-04T15:39:59;39.70;86.50
49465;DHT22;35358;49.342;8.802;2022-08-04T15:43:08;39.90;85.10
49465;DHT22;35358;49.342;8.802;2022-08-04T15:58:50;39.30;83.90
49465;DHT22;35358;49.342;8.802;2022-08-04T16:01:19;39.60;83.30
49465;DHT22;35358;49.342;8.802;2022-08-04T16:19:30;39.90;89.00
49465;DHT22;35358;49.342;8.802;2022-08-04T16:21:55;40.20;86.40
49465;DHT22;35358;49.342;8.802;2022-08-04T16:24:39;40.00;84.50
49465;DHT22;35358;49.342;8.802;2022-08-04T16:27:08;39.50;86.00
49465;DHT22;35358;49.342;8.802;2022-08-04T16:29:42;39.60;82.70
49465;DHT22;35358;49.342;8.802;2022-08-04T16:37:23;39.40;84.50
49465;DHT22;35358;49.342;8.802;2022-08-04T16:39:57;39.40;86.80
49465;DHT22;35358;49.342;8.802;2022-08-04T16:42:34;39.10;80.90
49465;DHT22;35358;49.342;8.802;2022-08-04T16:50:20;39.20;85.30
49465;DHT22;35358;49.342;8.802;2022-08-04T16:52:47;39.20;82.30
49465;DHT22;35358;49.342;8.802;2022-08-04T16:55:26;38.80;81.00
49465;DHT22;35358;49.342;8.802;2022-08-04T16:57:55;39.10;82.20
49465;DHT22;35358;49.342;8.802;2022-08-04T17:00:32;38.90;83.50
49465;DHT22;35358;49.342;8.802;2022-08-04T17:03:06;38.70;82.20
49465;DHT22;35358;49.342;8.802;2022-08-04T17:05:33;38.70;85.60
49465;DHT22;35358;49.342;8.802;2022-08-04T17:08:00;38.80;83.30
49465;DHT22;35358;49.342;8.802;2022-08-04T17:10:33;38.60;90.30
49465;DHT22;35358;49.342;8.802;2022-08-04T17:13:01;38.70;88.20
49465;DHT22;35358;49.342;8.802;2022-08-04T17:15:26;38.80;88.80
49465;DHT22;35358;49.342;8.802;2022-08-04T17:18:25;38.60;89.00
49465;DHT22;35358;49.342;8.802;2022-08-04T17:20:53;38.70;90.50
49465;DHT22;35358;49.342;8.802;2022-08-04T17:23:35;38.50;90.40
49465;DHT22;35358;49.342;8.802;2022-08-04T17:28:31;38.20;91.10
49465;DHT22;35358;49.342;8.802;2022-08-04T17:30:59;37.40;91.00
49465;DHT22;35358;49.342;8.802;2022-08-04T17:33:25;37.00;91.60
49465;DHT22;35358;49.342;8.802;2022-08-04T17:35:54;36.90;92.40
49465;DHT22;35358;49.342;8.802;2022-08-04T17:38:20;36.50;91.40
49465;DHT22;35358;49.342;8.802;2022-08-04T17:40:58;36.00;92.10
49465;DHT22;35358;49.342;8.802;2022-08-04T17:46:27;35.30;94.80
49465;DHT22;35358;49.342;8.802;2022-08-04T17:51:41;34.90;96.10
49465;DHT22;35358;49.342;8.802;2022-08-04T17:54:09;34.60;96.70
49465;DHT22;35358;49.342;8.802;2022-08-04T18:02:05;34.00;98.10
49465;DHT22;35358;49.342;8.802;2022-08-04T18:04:36;34.20;97.40
49465;DHT22;35358;49.342;8.802;2022-08-04T18:07:10;34.20;98.00
49465;DHT22;35358;49.342;8.802;2022-08-04T18:09:39;34.10;98.40
49465;DHT22;35358;49.342;8.802;2022-08-04T18:12:30;33.80;98.00
49465;DHT22;35358;49.342;8.802;2022-08-04T18:15:01;33.40;99.00
49465;DHT22;35358;49.342;8.802;2022-08-04T18:17:32;33.10;98.70
49465;DHT22;35358;49.342;8.802;2022-08-04T18:19:59;33.00;99.30
49465;DHT22;35358;49.342;8.802;2022-08-04T18:22:27;32.70;99.90
49465;DHT22;35358;49.342;8.802;2022-08-04T18:24:57;32.40;99.90
49465;DHT22;35358;49.342;8.802;2022-08-04T18:27:27;32.10;99.90
49465;DHT22;35358;49.342;8.802;2022-08-04T18:29:53;32.10;99.90
49465;DHT22;35358;49.342;8.802;2022-08-04T18:32:21;31.90;99.90
49465;DHT22;35358;49.342;8.802;2022-08-04T18:34:51;31.70;99.90
49465;DHT22;35358;49.342;8.802;2022-08-04T18:37:17;31.40;99.90
49465;DHT22;35358;49.342;8.802;2022-08-04T18:39:42;31.10;99.90
49465;DHT22;35358;49.342;8.802;2022-08-04T18:42:11;30.90;99.90
49465;DHT22;35358;49.342;8.802;2022-08-04T18:44:39;30.90;99.90
49465;DHT22;35358;49.342;8.802;2022-08-04T18:47:07;30.70;99.90
49465;DHT22;35358;49.342;8.802;2022-08-04T18:49:33;30.50;99.90
49465;DHT22;35358;49.342;8.802;2022-08-04T18:51:58;30.50;99.90
49465;DHT22;35358;49.342;8.802;2022-08-04T18:54:26;30.40;99.90
49465;DHT22;35358;49.342;8.802;2022-08-04T18:56:56;30.20;99.90
49465;DHT22;35358;49.342;8.802;2022-08-04T18:59:24;30.10;99.90
49465;DHT22;35358;49.342;8.802;2022-08-04T19:01:52;29.90;99.90
49465;DHT22;35358;49.342;8.802;2022-08-04T19:04:22;29.80;99.90
49465;DHT22;35358;49.342;8.802;2022-08-04T19:06:48;29.60;99.90
49465;DHT22;35358;49.342;8.802;2022-08-04T19:09:13;29.70;99.90
49465;DHT22;35358;49.342;8.802;2022-08-04T19:11:39;29.70;99.90
49465;DHT22;35358;49.342;8.802;2022-08-04T19:14:05;29.50;99.90
49465;DHT22;35358;49.342;8.802;2022-08-04T19:16:35;29.40;99.90
49465;DHT22;35358;49.342;8.802;2022-08-04T19:19:04;29.20;99.90
49465;DHT22;35358;49.342;8.802;2022-08-04T19:21:33;29.00;99.90
49465;DHT22;35358;49.342;8.802;2022-08-04T19:23:59;28.80;99.90
49465;DHT22;35358;49.342;8.802;2022-08-04T19:26:24;28.70;99.90
49465;DHT22;35358;49.342;8.802;2022-08-04T19:28:53;28.60;99.90
49465;DHT22;35358;49.342;8.802;2022-08-04T19:31:19;28.50;99.90
49465;DHT22;35358;49.342;8.802;2022-08-04T19:33:47;28.40;99.90
49465;DHT22;35358;49.342;8.802;2022-08-04T19:36:13;28.40;99.90
49465;DHT22;35358;49.342;8.802;2022-08-04T19:38:39;28.40;99.90
49465;DHT22;35358;49.342;8.802;2022-08-04T19:41:05;28.30;99.90
49465;DHT22;35358;49.342;8.802;2022-08-04T19:43:34;28.10;99.90
49465;DHT22;35358;49.342;8.802;2022-08-04T19:46:02;28.00;99.90
49465;DHT22;35358;49.342;8.802;2022-08-04T19:48:27;27.90;99.90
49465;DHT22;35358;49.342;8.802;2022-08-04T19:50:56;27.90;99.90
49465;DHT22;35358;49.342;8.802;2022-08-04T19:53:23;27.80;99.90
49465;DHT22;35358;49.342;8.802;2022-08-04T19:55:49;27.80;99.90
49465;DHT22;35358;49.342;8.802;2022-08-04T19:58:16;27.70;99.90
49465;DHT22;35358;49.342;8.802;2022-08-04T20:00:42;27.60;99.90
49465;DHT22;35358;49.342;8.802;2022-08-04T20:03:08;27.50;99.90
49465;DHT22;35358;49.342;8.802;2022-08-04T20:05:41;27.40;99.90
49465;DHT22;35358;49.342;8.802;2022-08-04T20:08:08;27.40;99.90
49465;DHT22;35358;49.342;8.802;2022-08-04T20:10:36;27.30;99.90
49465;DHT22;35358;49.342;8.802;2022-08-04T20:13:04;27.20;99.90
49465;DHT22;35358;49.342;8.802;2022-08-04T20:15:33;27.10;99.90
49465;DHT22;35358;49.342;8.802;2022-08-04T20:18:01;27.00;99.90
49465;DHT22;35358;49.342;8.802;2022-08-04T20:20:29;27.00;99.90
49465;DHT22;35358;49.342;8.802;2022-08-04T20:22:57;26.70;99.90
49465;DHT22;35358;49.342;8.802;2022-08-04T20:25:25;26.80;99.90
49465;DHT22;35358;49.342;8.802;2022-08-04T20:27:53;26.70;99.90
49465;DHT22;35358;49.342;8.802;2022-08-04T20:30:19;26.60;99.90
49465;DHT22;35358;49.342;8.802;2022-08-04T20:32:44;26.50;99.90
49465;DHT22;35358;49.342;8.802;2022-08-04T20:35:12;26.40;99.90
49465;DHT22;35358;49.342;8.802;2022-08-04T20:37:41;26.40;99.90
49465;DHT22;35358;49.342;8.802;2022-08-04T20:40:08;26.30;99.90